Time;durP1;ratioP1;P1;durP2;ratioP2;P2;SDS_P1;SDS_P2;PMS_P1;PMS_P2;Temp;Humidity;BMP_temperature;BMP_pressure;BME280_temperature;BME280_humidity;BME280_pressure;Samples;Min_cycle;Max_cycle;Signal;HPM_P1;HPM_P2
2022/09/24 00:00:36;;;;;;;48.70;32.40;;;;;;;;;;5070278;28;20101;-67
2022/09/24 00:03:03;;;;;;;50.65;31.88;;;;;;;;;;5070768;28;20119;-67
2022/09/24 00:05:29;;;;;;;49.38;32.03;;;;;;;;;;5066834;28;20036;-68
2022/09/24 00:07:55;;;;;;;48.42;33.72;;;;;;;;;;5066609;28;20037;-67
2022/09/24 00:10:22;;;;;;;44.45;30.67;;;;;;;;;;5070673;28;20162;-67
2022/09/24 00:12:48;;;;;;;49.20;31.73;;;;;;;;;;5061559;28;20037;-67
2022/09/24 00:15:14;;;;;;;49.97;33.75;;;;;;;;;;5069354;28;20043;-68
2022/09/24 00:17:40;;;;;;;52.40;34.60;;;;;;;;;;5066033;28;20044;-67
2022/09/24 00:20:06;;;;;;;51.22;34.15;;;;;;;;;;5066018;28;20036;-67
2022/09/24 00:22:32;;;;;;;50.30;33.38;;;;;;;;;;5078525;28;20079;-67
2022/09/24 00:27:43;;;;;;;52.40;34.97;;;;;;;;;;5068827;28;20044;-67
2022/09/24 00:30:09;;;;;;;51.38;34.25;;;;;;;;;;5069739;28;20414;-67
2022/09/24 00:32:35;;;;;;;50.20;33.83;;;;;;;;;;5059970;28;20121;-67
2022/09/24 00:35:01;;;;;;;51.88;34.33;;;;;;;;;;5063174;28;20068;-68
2022/09/24 00:37:27;;;;;;;49.85;34.80;;;;;;;;;;5070556;28;20037;-68
2022/09/24 00:39:53;;;;;;;51.20;33.78;;;;;;;;;;5068691;28;20102;-68
2022/09/24 00:42:21;;;;;;;52.95;34.92;;;;;;;;;;5071166;28;20048;-67
2022/09/24 00:44:52;;;;;;;52.03;34.33;;;;;;;;;;5070062;28;20044;-67
2022/09/24 00:47:28;;;;;;;56.58;35.78;;;;;;;;;;5064533;28;20040;-67
2022/09/24 00:50:23;;;;;;;50.35;34.13;;;;;;;;;;5065428;28;20032;-67
2022/09/24 00:52:57;;;;;;;52.83;34.55;;;;;;;;;;5051078;28;20048;-68
2022/09/24 00:55:23;;;;;;;53.42;34.55;;;;;;;;;;5069223;28;20079;-67
2022/09/24 00:57:52;;;;;;;52.83;35.05;;;;;;;;;;5067814;28;20393;-67
2022/09/24 01:00:18;;;;;;;54.00;34.33;;;;;;;;;;5070584;28;20486;-67
2022/09/24 01:02:46;;;;;;;52.53;34.95;;;;;;;;;;5063838;28;20466;-67
2022/09/24 01:05:12;;;;;;;53.75;35.80;;;;;;;;;;5070191;28;20039;-67
2022/09/24 01:07:38;;;;;;;56.42;35.05;;;;;;;;;;5065482;28;20048;-67
2022/09/24 01:10:05;;;;;;;55.30;34.80;;;;;;;;;;5067601;28;20104;-67
2022/09/24 01:12:47;;;;;;;53.90;35.60;;;;;;;;;;5073597;28;20359;-67
2022/09/24 01:15:14;;;;;;;56.03;36.30;;;;;;;;;;5070237;28;20525;-68
2022/09/24 01:17:51;;;;;;;56.17;35.38;;;;;;;;;;5070483;28;20044;-67
2022/09/24 01:20:17;;;;;;;57.03;36.17;;;;;;;;;;5056336;28;20508;-68
2022/09/24 01:23:02;;;;;;;59.63;36.25;;;;;;;;;;5057929;28;20111;-68
2022/09/24 01:25:47;;;;;;;56.33;35.38;;;;;;;;;;5083982;22;20482;-63
2022/09/24 01:28:35;;;;;;;58.35;35.80;;;;;;;;;;5058547;28;20035;-63
2022/09/24 01:31:28;;;;;;;55.25;35.65;;;;;;;;;;5058139;28;20094;-63
2022/09/24 01:33:56;;;;;;;56.22;36.67;;;;;;;;;;5046754;28;20049;-63
2022/09/24 01:36:24;;;;;;;56.85;35.72;;;;;;;;;;5049329;28;20041;-64
2022/09/24 01:38:52;;;;;;;58.40;35.65;;;;;;;;;;5034677;28;20041;-63
2022/09/24 01:41:18;;;;;;;58.65;35.92;;;;;;;;;;5037909;28;20037;-64
2022/09/24 01:43:45;;;;;;;56.15;35.97;;;;;;;;;;5052759;28;20057;-64
2022/09/24 01:46:11;;;;;;;55.63;35.22;;;;;;;;;;5044546;28;20033;-64
2022/09/24 01:48:38;;;;;;;55.70;35.78;;;;;;;;;;5037892;28;20048;-64
2022/09/24 01:51:07;;;;;;;55.05;35.72;;;;;;;;;;5033689;28;20037;-64
2022/09/24 01:53:38;;;;;;;58.17;35.25;;;;;;;;;;5041892;28;20106;-64
2022/09/24 01:56:15;;;;;;;56.47;35.53;;;;;;;;;;5054085;28;20124;-64
2022/09/24 01:58:49;;;;;;;56.38;34.67;;;;;;;;;;5051311;28;20098;-64
2022/09/24 02:01:18;;;;;;;53.85;35.33;;;;;;;;;;5037159;28;20111;-64
2022/09/24 02:03:47;;;;;;;59.28;36.80;;;;;;;;;;5053557;28;20318;-64
2022/09/24 02:06:20;;;;;;;58.28;36.97;;;;;;;;;;5041905;28;20110;-64
2022/09/24 02:08:46;;;;;;;55.97;35.67;;;;;;;;;;5051323;28;20044;-64
2022/09/24 02:11:15;;;;;;;59.83;36.13;;;;;;;;;;5045376;28;20049;-64
2022/09/24 02:13:43;;;;;;;60.25;37.35;;;;;;;;;;5052428;28;20514;-64
2022/09/24 02:16:15;;;;;;;59.20;36.65;;;;;;;;;;5036367;28;20116;-64
2022/09/24 02:18:40;;;;;;;;;;;;;;;;;;5033834;28;20088;-64
2022/09/24 02:21:08;;;;;;;55.95;34.83;;;;;;;;;;5031919;28;19921;-64
2022/09/24 02:23:36;;;;;;;56.60;35.65;;;;;;;;;;5053026;28;20037;-64
2022/09/24 02:26:03;;;;;;;58.10;34.38;;;;;;;;;;5047618;28;20168;-64
2022/09/24 02:28:31;;;;;;;55.75;35.75;;;;;;;;;;5032895;28;20046;-64
2022/09/24 02:31:17;;;;;;;52.97;33.63;;;;;;;;;;5049941;28;20049;-64
2022/09/24 02:36:30;;;;;;;57.15;35.50;;;;;;;;;;5035280;28;20430;-64
2022/09/24 02:38:56;;;;;;;57.20;35.40;;;;;;;;;;5040315;28;20413;-64
2022/09/24 02:41:23;;;;;;;57.35;36.80;;;;;;;;;;5039386;28;20601;-64
2022/09/24 02:43:50;;;;;;;57.30;34.47;;;;;;;;;;5045716;28;20073;-64
2022/09/24 02:46:16;;;;;;;60.75;35.25;;;;;;;;;;5044615;28;20048;-64
2022/09/24 02:48:43;;;;;;;58.03;36.17;;;;;;;;;;5051868;28;20059;-64
2022/09/24 02:51:09;;;;;;;56.65;35.33;;;;;;;;;;5045558;28;20036;-64
2022/09/24 02:53:35;;;;;;;60.80;35.83;;;;;;;;;;5036358;28;20041;-64
2022/09/24 02:56:01;;;;;;;55.88;35.40;;;;;;;;;;5051487;28;20040;-64
2022/09/24 02:58:28;;;;;;;58.03;34.47;;;;;;;;;;5047348;28;20138;-64
2022/09/24 03:00:55;;;;;;;57.03;34.40;;;;;;;;;;5033157;28;20104;-64
2022/09/24 03:03:21;;;;;;;64.78;37.42;;;;;;;;;;5050922;28;20045;-64
2022/09/24 03:05:48;;;;;;;63.08;36.90;;;;;;;;;;5047835;28;20093;-64
2022/09/24 03:08:14;;;;;;;61.35;37.17;;;;;;;;;;5043863;28;20048;-64
2022/09/24 03:10:40;;;;;;;62.92;37.95;;;;;;;;;;5051580;28;20037;-64
2022/09/24 03:13:06;;;;;;;62.20;38.40;;;;;;;;;;5047386;28;20091;-64
2022/09/24 03:15:32;;;;;;;65.13;37.97;;;;;;;;;;5037994;28;20033;-64
2022/09/24 03:17:58;;;;;;;62.22;38.00;;;;;;;;;;5048220;28;20399;-64
2022/09/24 03:20:24;;;;;;;61.22;38.33;;;;;;;;;;5050619;28;20044;-64
2022/09/24 03:22:50;;;;;;;63.78;37.95;;;;;;;;;;5044210;28;20049;-63
2022/09/24 03:25:17;;;;;;;66.35;39.72;;;;;;;;;;5039556;28;20098;-64
2022/09/24 03:27:43;;;;;;;60.38;37.33;;;;;;;;;;5047015;28;21618;-64
2022/09/24 03:32:54;;;;;;;59.25;36.60;;;;;;;;;;5051943;28;20140;-64
2022/09/24 03:35:20;;;;;;;64.10;38.42;;;;;;;;;;5051471;28;20378;-64
2022/09/24 03:37:46;;;;;;;58.20;37.38;;;;;;;;;;5036241;28;20044;-64
2022/09/24 03:40:12;;;;;;;61.83;37.97;;;;;;;;;;5032195;28;20037;-64
2022/09/24 03:42:38;;;;;;;59.85;38.75;;;;;;;;;;5044292;28;20048;-64
2022/09/24 03:45:05;;;;;;;62.83;38.92;;;;;;;;;;5051577;28;20094;-64
2022/09/24 03:47:32;;;;;;;64.40;38.45;;;;;;;;;;5050723;28;20041;-64
2022/09/24 03:49:58;;;;;;;63.13;38.08;;;;;;;;;;5049432;28;20507;-64
2022/09/24 03:52:24;;;;;;;63.75;39.13;;;;;;;;;;5045745;28;20052;-64
2022/09/24 03:54:50;;;;;;;64.43;38.75;;;;;;;;;;5040648;28;20183;-64
2022/09/24 03:57:17;;;;;;;58.13;37.35;;;;;;;;;;5032825;28;20120;-64
2022/09/24 03:59:43;;;;;;;61.45;39.13;;;;;;;;;;5046402;28;20045;-64
2022/09/24 04:02:10;;;;;;;63.22;38.95;;;;;;;;;;5044339;28;20098;-64
2022/09/24 04:04:37;;;;;;;56.65;36.13;;;;;;;;;;5046206;28;20569;-64
2022/09/24 04:07:03;;;;;;;60.83;37.75;;;;;;;;;;5062613;28;20510;-64
2022/09/24 04:09:29;;;;;;;61.10;37.33;;;;;;;;;;5050881;28;20045;-64
2022/09/24 04:11:55;;;;;;;62.90;39.08;;;;;;;;;;5047016;28;20127;-64
2022/09/24 04:14:21;;;;;;;56.47;37.17;;;;;;;;;;5035229;28;20056;-64
2022/09/24 04:16:48;;;;;;;57.70;36.47;;;;;;;;;;5031693;28;20053;-64
2022/09/24 04:19:17;;;;;;;62.30;38.63;;;;;;;;;;5043823;28;20048;-64
2022/09/24 04:21:44;;;;;;;64.65;38.25;;;;;;;;;;5042243;28;20057;-64
2022/09/24 04:24:10;;;;;;;62.60;37.38;;;;;;;;;;5050859;28;20037;-64
2022/09/24 04:26:36;;;;;;;64.28;38.00;;;;;;;;;;5044286;28;20454;-64
2022/09/24 04:29:03;;;;;;;63.72;37.08;;;;;;;;;;5046151;28;20132;-64
2022/09/24 04:31:32;;;;;;;65.25;39.30;;;;;;;;;;5050124;28;20036;-64
2022/09/24 04:33:58;;;;;;;58.55;37.03;;;;;;;;;;5042826;28;20053;-63
2022/09/24 04:36:24;;;;;;;63.45;38.17;;;;;;;;;;5051188;28;20526;-64
2022/09/24 04:38:50;;;;;;;61.88;36.58;;;;;;;;;;5045262;28;20396;-64
2022/09/24 04:41:16;;;;;;;56.72;36.38;;;;;;;;;;5052911;28;20418;-64
2022/09/24 04:43:45;;;;;;;60.63;37.38;;;;;;;;;;5055276;28;20040;-64
2022/09/24 04:46:11;;;;;;;58.47;34.63;;;;;;;;;;5050412;28;20116;-64
2022/09/24 04:48:38;;;;;;;58.63;36.97;;;;;;;;;;5053647;28;20425;-64
2022/09/24 04:51:07;;;;;;;55.35;34.85;;;;;;;;;;5044196;28;20483;-64
2022/09/24 04:53:35;;;;;;;54.22;34.70;;;;;;;;;;5038593;28;20056;-64
2022/09/24 04:56:02;;;;;;;58.08;34.88;;;;;;;;;;5052330;28;20049;-64
2022/09/24 04:58:28;;;;;;;58.53;35.92;;;;;;;;;;5040764;28;20049;-64
2022/09/24 05:00:54;;;;;;;58.45;36.60;;;;;;;;;;5047460;28;20468;-64
2022/09/24 05:03:20;;;;;;;57.47;35.13;;;;;;;;;;5033831;28;20045;-64
2022/09/24 05:05:46;;;;;;;58.00;35.20;;;;;;;;;;5046249;28;20478;-63
2022/09/24 05:08:12;;;;;;;58.35;35.10;;;;;;;;;;5045778;28;20033;-63
2022/09/24 05:10:39;;;;;;;53.67;33.92;;;;;;;;;;5033709;28;20041;-63
2022/09/24 05:13:05;;;;;;;53.13;34.00;;;;;;;;;;5053729;28;20059;-63
2022/09/24 05:15:31;;;;;;;55.97;34.78;;;;;;;;;;5047865;28;20036;-63
2022/09/24 05:17:58;;;;;;;53.85;34.35;;;;;;;;;;5046483;28;20124;-63
2022/09/24 05:20:24;;;;;;;57.42;35.20;;;;;;;;;;5052475;28;20045;-63
2022/09/24 05:22:50;;;;;;;55.90;34.58;;;;;;;;;;5034913;28;20053;-64
2022/09/24 05:25:18;;;;;;;54.15;33.15;;;;;;;;;;5034202;28;20526;-64
2022/09/24 05:27:45;;;;;;;57.20;34.05;;;;;;;;;;5047538;28;20044;-64
2022/09/24 05:30:11;;;;;;;53.17;33.13;;;;;;;;;;5051385;28;20096;-63
2022/09/24 05:32:37;;;;;;;53.83;33.15;;;;;;;;;;5040294;28;20053;-64
2022/09/24 05:35:03;;;;;;;52.75;31.98;;;;;;;;;;5050269;28;20041;-63
2022/09/24 05:37:29;;;;;;;53.97;32.72;;;;;;;;;;5050478;28;20101;-63
2022/09/24 05:39:56;;;;;;;51.92;32.60;;;;;;;;;;5040255;28;20115;-64
2022/09/24 05:42:22;;;;;;;54.17;32.45;;;;;;;;;;5054195;28;20442;-64
2022/09/24 05:44:48;;;;;;;53.53;31.73;;;;;;;;;;5052809;28;20040;-64
2022/09/24 05:47:16;;;;;;;50.00;31.70;;;;;;;;;;5035812;28;20069;-63
2022/09/24 05:49:42;;;;;;;55.15;32.92;;;;;;;;;;5038021;28;20384;-64
2022/09/24 05:52:08;;;;;;;51.97;32.17;;;;;;;;;;5041294;28;20048;-64
2022/09/24 05:54:34;;;;;;;51.47;30.63;;;;;;;;;;5048860;28;20052;-64
2022/09/24 05:57:00;;;;;;;54.92;33.17;;;;;;;;;;5049867;28;20041;-64
2022/09/24 05:59:26;;;;;;;57.63;32.75;;;;;;;;;;5052020;28;20075;-64
2022/09/24 06:01:53;;;;;;;51.25;30.65;;;;;;;;;;5047049;28;20094;-64
2022/09/24 06:04:19;;;;;;;55.75;32.83;;;;;;;;;;5043250;28;20053;-63
2022/09/24 06:06:45;;;;;;;51.90;31.02;;;;;;;;;;5039604;28;20034;-64
2022/09/24 06:09:11;;;;;;;52.40;32.20;;;;;;;;;;5032925;28;20037;-64
2022/09/24 06:11:37;;;;;;;52.70;30.40;;;;;;;;;;5048805;28;20045;-64
2022/09/24 06:14:04;;;;;;;51.10;31.27;;;;;;;;;;5048184;28;20056;-65
2022/09/24 06:16:32;;;;;;;54.40;31.10;;;;;;;;;;5042539;28;20046;-64
2022/09/24 06:18:58;;;;;;;55.38;31.75;;;;;;;;;;5043183;28;20041;-64
2022/09/24 06:21:24;;;;;;;54.25;31.38;;;;;;;;;;5040576;28;20051;-63
2022/09/24 06:23:50;;;;;;;51.65;30.33;;;;;;;;;;5033456;28;20407;-64
2022/09/24 06:26:17;;;;;;;59.40;32.17;;;;;;;;;;5033813;28;20108;-64
2022/09/24 06:28:43;;;;;;;52.90;31.50;;;;;;;;;;5053061;28;20057;-63
2022/09/24 06:31:11;;;;;;;55.72;29.92;;;;;;;;;;5050958;28;20051;-64
2022/09/24 06:33:37;;;;;;;53.08;30.65;;;;;;;;;;5047434;28;20476;-63
2022/09/24 06:36:04;;;;;;;54.45;31.40;;;;;;;;;;5047397;28;20029;-64
2022/09/24 06:38:30;;;;;;;56.67;30.90;;;;;;;;;;5044816;28;20432;-64
2022/09/24 06:41:00;;;;;;;58.90;30.38;;;;;;;;;;5050558;28;20094;-64
2022/09/24 06:43:27;;;;;;;53.83;31.00;;;;;;;;;;5051863;28;20037;-63
2022/09/24 06:45:56;;;;;;;57.78;32.33;;;;;;;;;;5050416;28;20498;-63
2022/09/24 06:48:23;;;;;;;51.90;30.23;;;;;;;;;;5052195;28;20045;-63
2022/09/24 06:50:50;;;;;;;57.03;30.23;;;;;;;;;;5048088;28;20036;-64
2022/09/24 06:53:16;;;;;;;55.80;31.50;;;;;;;;;;5043852;28;20052;-64
2022/09/24 06:55:42;;;;;;;57.30;29.95;;;;;;;;;;5052415;28;20090;-64
2022/09/24 06:58:10;;;;;;;56.00;31.05;;;;;;;;;;5051368;28;20043;-63
2022/09/24 07:00:37;;;;;;;52.47;30.65;;;;;;;;;;5037666;28;20045;-63
2022/09/24 07:03:04;;;;;;;54.30;30.30;;;;;;;;;;5035365;28;20068;-63
2022/09/24 07:05:30;;;;;;;54.50;29.05;;;;;;;;;;5043763;28;20044;-64
2022/09/24 07:07:56;;;;;;;55.25;30.30;;;;;;;;;;5037310;28;20041;-64
2022/09/24 07:10:24;;;;;;;60.38;30.67;;;;;;;;;;5032395;28;20545;-64
2022/09/24 07:12:50;;;;;;;55.60;29.38;;;;;;;;;;5046646;28;20044;-64
2022/09/24 07:15:16;;;;;;;55.30;30.38;;;;;;;;;;5046568;28;20521;-64
2022/09/24 07:17:42;;;;;;;52.85;30.02;;;;;;;;;;5050775;28;20049;-64
2022/09/24 07:20:08;;;;;;;56.28;30.88;;;;;;;;;;5051123;28;20040;-64
2022/09/24 07:22:41;;;;;;;53.53;30.23;;;;;;;;;;5043804;28;20048;-64
2022/09/24 07:25:09;;;;;;;57.38;30.70;;;;;;;;;;5065151;22;20045;-66
2022/09/24 07:27:35;;;;;;;57.65;31.17;;;;;;;;;;5044073;28;20048;-66
2022/09/24 07:30:01;;;;;;;54.38;30.77;;;;;;;;;;5051104;28;20045;-68
2022/09/24 07:32:27;;;;;;;57.80;29.80;;;;;;;;;;5049758;28;20136;-68
2022/09/24 07:34:54;;;;;;;56.53;30.52;;;;;;;;;;5048486;28;20048;-67
2022/09/24 07:37:20;;;;;;;59.92;30.83;;;;;;;;;;5060099;28;20119;-67
2022/09/24 07:39:45;;;;;;;58.83;31.00;;;;;;;;;;5052375;28;20121;-67
2022/09/24 07:42:11;;;;;;;59.03;29.50;;;;;;;;;;5056833;28;20045;-67
2022/09/24 07:44:37;;;;;;;63.22;30.73;;;;;;;;;;5051673;28;20040;-68
2022/09/24 07:47:04;;;;;;;61.83;29.88;;;;;;;;;;5044987;28;20037;-68
2022/09/24 07:49:31;;;;;;;54.28;27.73;;;;;;;;;;5045246;28;20037;-68
2022/09/24 07:51:58;;;;;;;54.28;29.00;;;;;;;;;;5059761;28;20457;-68
2022/09/24 07:54:24;;;;;;;48.45;25.88;;;;;;;;;;5053907;28;20454;-68
2022/09/24 07:56:50;;;;;;;48.63;25.85;;;;;;;;;;5054864;28;20045;-68
2022/09/24 07:59:16;;;;;;;55.67;27.45;;;;;;;;;;5056179;28;20120;-67
2022/09/24 08:01:42;;;;;;;48.63;26.35;;;;;;;;;;5045095;28;20151;-67
2022/09/24 08:04:08;;;;;;;49.88;25.75;;;;;;;;;;5047635;28;20044;-66
2022/09/24 08:06:34;;;;;;;49.42;25.88;;;;;;;;;;5040177;28;20033;-67
2022/09/24 08:09:01;;;;;;;46.92;24.80;;;;;;;;;;5051261;28;20036;-67
2022/09/24 08:11:27;;;;;;;47.05;25.15;;;;;;;;;;5058317;28;20060;-66
2022/09/24 08:13:55;;;;;;;43.30;24.50;;;;;;;;;;5046587;28;20067;-67
2022/09/24 08:16:21;;;;;;;43.80;23.25;;;;;;;;;;5042007;28;20068;-67
2022/09/24 08:18:47;;;;;;;43.10;23.38;;;;;;;;;;5051397;28;20045;-66
2022/09/24 08:21:14;;;;;;;42.05;22.25;;;;;;;;;;5048048;28;20384;-67
2022/09/24 08:23:40;;;;;;;38.78;22.15;;;;;;;;;;5055118;28;20041;-67
2022/09/24 08:26:06;;;;;;;41.80;22.75;;;;;;;;;;5050835;28;20073;-67
2022/09/24 08:28:33;;;;;;;38.20;21.90;;;;;;;;;;5050074;28;20052;-67
2022/09/24 08:31:00;;;;;;;39.30;22.23;;;;;;;;;;5051016;28;20044;-67
2022/09/24 08:33:31;;;;;;;36.15;20.40;;;;;;;;;;5051231;28;20483;-67
2022/09/24 08:35:58;;;;;;;36.50;19.95;;;;;;;;;;5045912;28;20360;-67
2022/09/24 08:38:24;;;;;;;33.97;19.35;;;;;;;;;;5044867;28;20041;-67
2022/09/24 08:41:08;;;;;;;32.28;18.58;;;;;;;;;;5046816;28;20060;-68
2022/09/24 08:43:37;;;;;;;33.75;18.70;;;;;;;;;;5049243;28;20562;-67
2022/09/24 08:48:57;;;;;;;33.80;17.80;;;;;;;;;;5040988;28;20077;-66
2022/09/24 08:51:23;;;;;;;30.83;17.75;;;;;;;;;;5043386;28;20041;-66
2022/09/24 08:53:52;;;;;;;31.67;17.23;;;;;;;;;;5057183;28;20500;-66
2022/09/24 08:56:29;;;;;;;30.23;17.02;;;;;;;;;;5052393;28;20510;-66
2022/09/24 08:59:00;;;;;;;27.25;16.33;;;;;;;;;;5051337;28;20041;-66
2022/09/24 09:01:44;;;;;;;29.17;16.70;;;;;;;;;;5052104;28;20376;-66
2022/09/24 09:04:23;;;;;;;26.80;14.88;;;;;;;;;;5049931;28;20391;-66
2022/09/24 09:06:52;;;;;;;24.92;14.55;;;;;;;;;;5050583;28;20041;-66
2022/09/24 09:09:37;;;;;;;25.23;14.70;;;;;;;;;;5050290;28;20491;-67
2022/09/24 09:12:05;;;;;;;21.92;12.57;;;;;;;;;;5038942;28;20087;-66
2022/09/24 09:14:39;;;;;;;22.23;12.40;;;;;;;;;;5050966;28;20495;-67
2022/09/24 09:17:10;;;;;;;22.67;12.10;;;;;;;;;;5048301;28;20110;-67
2022/09/24 09:19:38;;;;;;;21.08;10.63;;;;;;;;;;5048581;28;20076;-67
2022/09/24 09:22:13;;;;;;;20.75;10.85;;;;;;;;;;5053625;28;20498;-66
2022/09/24 09:24:49;;;;;;;18.20;9.48;;;;;;;;;;5053330;28;20045;-66
2022/09/24 09:27:16;;;;;;;17.75;9.63;;;;;;;;;;5051438;28;20038;-66
2022/09/24 09:29:43;;;;;;;18.88;9.55;;;;;;;;;;5046737;28;20521;-66
2022/09/24 09:32:19;;;;;;;19.48;9.57;;;;;;;;;;5039439;28;20080;-67
2022/09/24 09:34:54;;;;;;;28.90;11.73;;;;;;;;;;5051493;28;20044;-67
2022/09/24 09:37:23;;;;;;;16.17;7.28;;;;;;;;;;5065597;28;20447;-67
2022/09/24 09:40:09;;;;;;;16.25;5.03;;;;;;;;;;5057548;28;20037;-67
2022/09/24 09:42:35;;;;;;;12.07;3.03;;;;;;;;;;5049648;28;20124;-67
2022/09/24 09:45:08;;;;;;;9.43;3.20;;;;;;;;;;5046313;28;20115;-67
2022/09/24 09:47:36;;;;;;;12.10;2.83;;;;;;;;;;5045018;28;20143;-67
2022/09/24 09:50:28;;;;;;;10.82;2.65;;;;;;;;;;5067889;28;20037;-67
2022/09/24 09:52:54;;;;;;;12.63;2.38;;;;;;;;;;5020266;28;20052;-67
2022/09/24 09:55:28;;;;;;;13.05;2.72;;;;;;;;;;5048386;28;20043;-66
2022/09/24 09:58:00;;;;;;;11.48;2.30;;;;;;;;;;5059503;28;20123;-67
2022/09/24 10:00:32;;;;;;;9.30;2.13;;;;;;;;;;5042271;28;21130;-67
2022/09/24 10:02:58;;;;;;;11.75;2.40;;;;;;;;;;5052138;28;20136;-67
2022/09/24 10:05:27;;;;;;;9.70;2.58;;;;;;;;;;5053359;28;20127;-67
2022/09/24 10:07:54;;;;;;;12.05;2.35;;;;;;;;;;5058156;28;20045;-67
2022/09/24 10:10:24;;;;;;;10.43;2.50;;;;;;;;;;5058431;28;20390;-67
2022/09/24 10:13:09;;;;;;;10.03;2.30;;;;;;;;;;5049338;28;20040;-67
2022/09/24 10:15:39;;;;;;;14.18;3.13;;;;;;;;;;5044658;28;20045;-67
2022/09/24 10:18:05;;;;;;;10.57;2.10;;;;;;;;;;5050568;28;20041;-67
2022/09/24 10:20:33;;;;;;;8.43;2.22;;;;;;;;;;5044088;28;20040;-67
2022/09/24 10:22:59;;;;;;;11.43;2.13;;;;;;;;;;5044670;28;20045;-67
2022/09/24 10:25:26;;;;;;;13.15;2.22;;;;;;;;;;5049015;28;20037;-67
2022/09/24 10:27:54;;;;;;;13.50;2.72;;;;;;;;;;5053293;28;20037;-68
2022/09/24 10:30:32;;;;;;;9.85;2.55;;;;;;;;;;5052665;28;20037;-68
2022/09/24 10:32:59;;;;;;;10.52;2.90;;;;;;;;;;5053027;28;20043;-68
2022/09/24 10:35:30;;;;;;;9.60;2.55;;;;;;;;;;5062023;28;20052;-68
2022/09/24 10:37:57;;;;;;;8.40;1.98;;;;;;;;;;5055316;28;20116;-68
2022/09/24 10:40:27;;;;;;;11.35;2.05;;;;;;;;;;5050730;28;20052;-68
2022/09/24 10:42:57;;;;;;;12.63;1.83;;;;;;;;;;5038774;28;20052;-68
2022/09/24 10:45:27;;;;;;;7.57;1.35;;;;;;;;;;5045125;28;20039;-68
2022/09/24 10:48:00;;;;;;;8.95;1.60;;;;;;;;;;5053589;28;20051;-67
2022/09/24 10:50:37;;;;;;;7.22;1.60;;;;;;;;;;5052566;28;20163;-68
2022/09/24 10:53:07;;;;;;;9.10;1.60;;;;;;;;;;5047081;28;20187;-67
2022/09/24 10:55:38;;;;;;;6.13;1.70;;;;;;;;;;5048186;28;20073;-67
2022/09/24 10:58:26;;;;;;;4.97;1.00;;;;;;;;;;5051849;28;20498;-68
2022/09/24 11:01:12;;;;;;;6.68;1.98;;;;;;;;;;5056280;28;20498;-68
2022/09/24 11:03:44;;;;;;;10.07;2.35;;;;;;;;;;5052244;28;20033;-68
2022/09/24 11:06:18;;;;;;;9.00;2.13;;;;;;;;;;5050174;28;20038;-68
2022/09/24 11:08:56;;;;;;;10.38;1.80;;;;;;;;;;5027828;28;20045;-68
2022/09/24 11:11:40;;;;;;;9.20;2.15;;;;;;;;;;5052718;28;20085;-69
2022/09/24 11:14:16;;;;;;;9.57;1.85;;;;;;;;;;5052242;28;20049;-68
2022/09/24 11:16:45;;;;;;;7.38;1.63;;;;;;;;;;5042485;28;20116;-68
2022/09/24 11:19:30;;;;;;;9.93;1.55;;;;;;;;;;5049341;28;20095;-68
2022/09/24 11:21:56;;;;;;;5.40;2.10;;;;;;;;;;5052174;28;20041;-68
2022/09/24 11:24:31;;;;;;;6.38;1.70;;;;;;;;;;5035023;28;20033;-68
2022/09/24 11:27:16;;;;;;;8.43;2.08;;;;;;;;;;5052613;28;20044;-68
2022/09/24 11:29:42;;;;;;;9.20;1.80;;;;;;;;;;5058972;28;20465;-67
2022/09/24 11:32:18;;;;;;;11.10;2.22;;;;;;;;;;5051270;28;20067;-68
2022/09/24 11:34:44;;;;;;;10.55;2.38;;;;;;;;;;5043307;28;20503;-68
2022/09/24 11:37:10;;;;;;;13.52;2.25;;;;;;;;;;5051917;28;20124;-67
2022/09/24 11:39:39;;;;;;;11.05;1.98;;;;;;;;;;5047854;28;20029;-67
2022/09/24 11:42:08;;;;;;;7.82;1.80;;;;;;;;;;5045481;28;20564;-68
2022/09/24 11:44:57;;;;;;;10.13;2.00;;;;;;;;;;5049629;28;20043;-68
2022/09/24 11:47:42;;;;;;;14.90;2.15;;;;;;;;;;5012153;28;20037;-68
2022/09/24 11:50:18;;;;;;;8.23;1.95;;;;;;;;;;5051486;28;20041;-68
2022/09/24 11:52:49;;;;;;;6.35;2.10;;;;;;;;;;5057255;28;20041;-68
2022/09/24 11:55:18;;;;;;;7.43;2.13;;;;;;;;;;5062760;28;20413;-68
2022/09/24 11:57:49;;;;;;;7.28;1.70;;;;;;;;;;5046374;28;20052;-68
2022/09/24 12:00:16;;;;;;;6.63;1.58;;;;;;;;;;5049736;28;20094;-68
2022/09/24 12:03:14;;;;;;;10.95;2.00;;;;;;;;;;5048977;28;20124;-68
2022/09/24 12:05:51;;;;;;;6.85;1.75;;;;;;;;;;4996790;28;20041;-67
2022/09/24 12:08:31;;;;;;;11.70;2.28;;;;;;;;;;5051477;28;20045;-67
2022/09/24 12:11:08;;;;;;;6.97;1.70;;;;;;;;;;5043820;28;20390;-68
2022/09/24 12:13:40;;;;;;;9.63;1.90;;;;;;;;;;5046343;28;20047;-68
2022/09/24 12:16:12;;;;;;;10.63;1.60;;;;;;;;;;5048163;28;20033;-68
2022/09/24 12:18:41;;;;;;;6.60;2.25;;;;;;;;;;5062941;28;20037;-67
2022/09/24 12:21:10;;;;;;;6.55;1.60;;;;;;;;;;5043893;28;20068;-67
2022/09/24 12:23:41;;;;;;;5.90;1.40;;;;;;;;;;5043330;28;20056;-67
2022/09/24 12:26:08;;;;;;;5.97;1.77;;;;;;;;;;5042816;28;20044;-68
2022/09/24 12:34:49;;;;;;;7.00;1.38;;;;;;;;;;5050839;28;20049;-68
2022/09/24 12:37:18;;;;;;;10.57;2.05;;;;;;;;;;5044335;28;20049;-68
2022/09/24 12:40:01;;;;;;;8.25;1.65;;;;;;;;;;5060155;28;20563;-68
2022/09/24 12:42:30;;;;;;;7.85;1.52;;;;;;;;;;5051228;28;20048;-68
2022/09/24 12:44:58;;;;;;;6.32;1.30;;;;;;;;;;5046332;28;20037;-68
2022/09/24 12:47:25;;;;;;;6.72;1.40;;;;;;;;;;5053836;28;20063;-68
2022/09/24 12:49:56;;;;;;;7.68;1.48;;;;;;;;;;5064656;28;20048;-68
2022/09/24 12:52:24;;;;;;;7.50;1.30;;;;;;;;;;5047701;28;20048;-68
2022/09/24 12:54:58;;;;;;;7.70;1.65;;;;;;;;;;5051303;28;20048;-67
2022/09/24 12:57:34;;;;;;;6.38;1.73;;;;;;;;;;5045407;28;20045;-67
2022/09/24 13:00:01;;;;;;;6.22;1.23;;;;;;;;;;5054539;28;20051;-68
2022/09/24 13:02:30;;;;;;;8.52;1.55;;;;;;;;;;5052788;28;20151;-68
2022/09/24 13:05:02;;;;;;;9.40;1.27;;;;;;;;;;5054671;28;20040;-68
2022/09/24 13:07:27;;;;;;;6.50;1.33;;;;;;;;;;5057372;28;20167;-68
2022/09/24 13:09:53;;;;;;;5.35;1.23;;;;;;;;;;5055578;28;20123;-68
2022/09/24 13:12:21;;;;;;;6.30;1.50;;;;;;;;;;5049531;28;20395;-68
2022/09/24 13:15:08;;;;;;;8.05;1.58;;;;;;;;;;5065295;28;20047;-68
2022/09/24 13:17:37;;;;;;;7.80;1.63;;;;;;;;;;5040518;28;20054;-68
2022/09/24 13:20:08;;;;;;;4.55;1.40;;;;;;;;;;5074245;28;20071;-68
2022/09/24 13:22:34;;;;;;;;;;;;;;;;;;5074694;28;20115;-68
2022/09/24 13:25:09;;;;;;;6.93;1.83;;;;;;;;;;5060181;28;19916;-68
2022/09/24 13:27:37;;;;;;;5.85;1.50;;;;;;;;;;5054545;28;20457;-68
2022/09/24 13:30:06;;;;;;;6.82;1.63;;;;;;;;;;5033301;28;20090;-68
2022/09/24 13:32:36;;;;;;;6.65;1.38;;;;;;;;;;5047346;28;20029;-68
2022/09/24 13:35:09;;;;;;;6.43;1.17;;;;;;;;;;5062146;28;20068;-68
2022/09/24 13:37:39;;;;;;;6.50;1.50;;;;;;;;;;5054176;22;20047;-65
2022/09/24 13:40:13;;;;;;;4.70;1.37;;;;;;;;;;5050040;28;20096;-65
2022/09/24 13:42:42;;;;;;;8.10;1.60;;;;;;;;;;5047460;28;20041;-65
2022/09/24 13:45:17;;;;;;;7.95;1.50;;;;;;;;;;5052758;28;20049;-65
2022/09/24 13:47:46;;;;;;;10.38;1.60;;;;;;;;;;5047541;28;20037;-65
2022/09/24 13:50:25;;;;;;;5.18;1.25;;;;;;;;;;5045456;28;20079;-65
2022/09/24 13:53:10;;;;;;;6.50;1.45;;;;;;;;;;5035146;28;20044;-65
2022/09/24 13:55:38;;;;;;;5.22;1.20;;;;;;;;;;5032259;28;20139;-65
2022/09/24 13:58:04;;;;;;;2.72;1.13;;;;;;;;;;5040901;28;20044;-65
2022/09/24 14:00:31;;;;;;;3.88;1.33;;;;;;;;;;5045012;28;20131;-65
2022/09/24 14:03:15;;;;;;;4.03;1.20;;;;;;;;;;5043302;28;20049;-65
2022/09/24 14:05:42;;;;;;;3.65;1.35;;;;;;;;;;5013618;28;20383;-65
2022/09/24 14:08:15;;;;;;;3.25;1.10;;;;;;;;;;5028198;28;20042;-65
2022/09/24 14:10:41;;;;;;;4.40;1.08;;;;;;;;;;5027540;28;20041;-65
2022/09/24 14:13:24;;;;;;;4.80;1.25;;;;;;;;;;5031621;28;20058;-65
2022/09/24 14:16:01;;;;;;;3.33;1.50;;;;;;;;;;5029228;28;20049;-65
2022/09/24 14:18:28;;;;;;;4.40;1.30;;;;;;;;;;5014206;28;20042;-65
2022/09/24 14:20:54;;;;;;;2.50;1.40;;;;;;;;;;5033107;28;20268;-65
2022/09/24 14:23:21;;;;;;;4.85;1.27;;;;;;;;;;5030738;28;20049;-65
2022/09/24 14:25:48;;;;;;;4.18;1.92;;;;;;;;;;5032760;28;20037;-65
2022/09/24 14:28:14;;;;;;;5.53;2.28;;;;;;;;;;5033752;28;20037;-65
2022/09/24 14:30:48;;;;;;;4.97;1.83;;;;;;;;;;5032555;28;20052;-65
2022/09/24 14:33:17;;;;;;;4.97;2.15;;;;;;;;;;5023938;28;20144;-65
2022/09/24 14:35:47;;;;;;;7.85;2.83;;;;;;;;;;5033251;28;20041;-65
2022/09/24 14:38:16;;;;;;;7.28;2.90;;;;;;;;;;5024088;28;20046;-65
2022/09/24 14:41:11;;;;;;;8.32;2.65;;;;;;;;;;5024002;28;20050;-65
2022/09/24 14:43:41;;;;;;;6.00;2.20;;;;;;;;;;5025474;28;20120;-65
2022/09/24 14:46:16;;;;;;;5.25;2.22;;;;;;;;;;5012967;28;20038;-64
2022/09/24 14:48:43;;;;;;;8.40;2.40;;;;;;;;;;5030781;28;20038;-65
2022/09/24 14:51:25;;;;;;;5.82;2.60;;;;;;;;;;5028598;28;20057;-64
2022/09/24 14:54:18;;;;;;;8.38;2.33;;;;;;;;;;5027529;28;20065;-65
2022/09/24 14:56:45;;;;;;;6.45;2.05;;;;;;;;;;5015649;28;20048;-65